Time;durP1;ratioP1;P1;durP2;ratioP2;P2;SDS_P1;SDS_P2;PMS_P1;PMS_P2;Temp;Humidity;BMP_temperature;BMP_pressure;BME280_temperature;BME280_humidity;BME280_pressure;Samples;Min_cycle;Max_cycle;Signal;HPM_P1;HPM_P2
2021/07/09 00:03:02;;;;;;;9.40;3.72;;;19.20;87.20;;;;;;5024277;28;20214;-89
2021/07/09 00:05:52;;;;;;;3.55;3.25;;;19.10;87.70;;;;;;5005685;28;20212;-89
2021/07/09 00:08:40;;;;;;;;;;;;;;;;;;;;;
2021/07/09 00:11:40;;;;;;;;;;;;;;;;;;;;;
2021/07/09 00:14:21;;;;;;;4.65;3.33;;;18.90;89.90;;;;;;5010489;28;20276;-89
2021/07/09 00:16:54;;;;;;;4.82;3.03;;;18.70;90.00;;;;;;5010395;28;20190;-88
2021/07/09 00:19:24;;;;;;;5.22;3.15;;;18.60;90.30;;;;;;5010812;28;20217;-90
2021/07/09 00:21:59;;;;;;;3.60;3.30;;;18.60;90.10;;;;;;5029147;28;20192;-89
2021/07/09 00:24:50;;;;;;;7.20;3.38;;;18.50;90.70;;;;;;5011022;28;20212;-88
2021/07/09 00:30:15;;;;;;;4.43;3.50;;;18.40;91.40;;;;;;5001239;28;20201;-90
2021/07/09 00:32:45;;;;;;;7.20;3.80;;;18.50;91.10;;;;;;5010000;28;20754;-89
2021/07/09 00:35:18;;;;;;;4.30;3.42;;;18.50;90.70;;;;;;5010517;28;20271;-90
2021/07/09 00:38:17;;;;;;;5.40;3.40;;;18.40;91.40;;;;;;5011132;28;20165;-90
2021/07/09 00:41:15;;;;;;;5.85;3.35;;;18.30;91.30;;;;;;4951278;28;20679;-90
2021/07/09 00:43:50;;;;;;;5.00;3.15;;;18.30;91.50;;;;;;5009978;28;20288;-89
2021/07/09 00:46:45;;;;;;;5.63;3.80;;;18.40;90.80;;;;;;5009292;28;20176;-89
2021/07/09 00:49:34;;;;;;;6.53;3.45;;;18.40;90.30;;;;;;4985954;28;20277;-91
2021/07/09 00:52:03;;;;;;;6.05;3.78;;;18.30;91.10;;;;;;4961464;28;20216;-90
2021/07/09 00:54:29;;;;;;;4.13;3.60;;;18.30;91.20;;;;;;5006759;28;20213;-89
2021/07/09 00:56:55;;;;;;;4.35;3.75;;;18.20;91.80;;;;;;5003058;28;20173;-90
2021/07/09 00:59:23;;;;;;;7.07;4.00;;;18.20;91.60;;;;;;5007508;28;20177;-90
2021/07/09 01:01:49;;;;;;;5.78;3.60;;;18.20;92.20;;;;;;5022358;28;20247;-90
2021/07/09 01:04:15;;;;;;;3.88;3.58;;;18.20;92.10;;;;;;5005644;28;20831;-91
2021/07/09 01:06:41;;;;;;;6.53;4.00;;;18.20;91.90;;;;;;5023384;28;20220;-90
2021/07/09 01:09:07;;;;;;;6.28;3.90;;;18.10;92.30;;;;;;5022866;28;20185;-90
2021/07/09 01:11:33;;;;;;;3.95;3.55;;;18.10;92.20;;;;;;5005241;28;20240;-89
2021/07/09 01:13:59;;;;;;;4.53;4.13;;;18.00;92.50;;;;;;5022790;28;20278;-90
2021/07/09 01:16:24;;;;;;;4.47;4.07;;;17.90;93.00;;;;;;5023135;28;20180;-90
2021/07/09 01:18:51;;;;;;;5.53;3.70;;;18.00;92.40;;;;;;5024592;28;20178;-90
2021/07/09 01:21:17;;;;;;;3.72;3.38;;;17.90;93.00;;;;;;5023530;28;20805;-89
2021/07/09 01:23:43;;;;;;;5.53;3.78;;;17.80;93.00;;;;;;5023821;28;20207;-90
2021/07/09 01:26:09;;;;;;;4.30;3.90;;;17.80;93.00;;;;;;5006250;28;20190;-90
2021/07/09 01:28:36;;;;;;;5.10;3.50;;;17.60;93.50;;;;;;5023866;28;20190;-89
2021/07/09 01:31:02;;;;;;;3.63;3.33;;;17.60;93.60;;;;;;5005517;28;20203;-91
2021/07/09 01:33:29;;;;;;;4.75;3.65;;;17.80;93.20;;;;;;5006335;28;20223;-89
2021/07/09 01:35:55;;;;;;;7.40;3.60;;;17.70;92.70;;;;;;4987155;28;20203;-89
2021/07/09 01:38:25;;;;;;;4.23;3.60;;;17.60;92.90;;;;;;5004635;28;20222;-90
2021/07/09 01:40:50;;;;;;;5.07;3.67;;;17.70;93.50;;;;;;4986590;28;20230;-90
2021/07/09 01:43:19;;;;;;;4.67;3.60;;;17.70;92.00;;;;;;5004268;28;20659;-89
2021/07/09 01:45:45;;;;;;;3.95;3.65;;;17.70;92.10;;;;;;5003551;28;20181;-89
2021/07/09 01:48:11;;;;;;;6.83;4.03;;;17.90;92.10;;;;;;5021768;28;20595;-89
2021/07/09 01:50:36;;;;;;;6.60;3.70;;;17.80;92.00;;;;;;5004398;28;20226;-90
2021/07/09 01:53:02;;;;;;;4.72;4.05;;;17.80;92.20;;;;;;5004559;28;20215;-88
2021/07/09 01:55:28;;;;;;;5.40;3.80;;;17.90;91.70;;;;;;5022473;28;20213;-89
2021/07/09 01:57:54;;;;;;;4.82;4.43;;;17.90;91.20;;;;;;5022183;28;20180;-89
2021/07/09 02:00:24;;;;;;;4.72;4.22;;;18.00;90.70;;;;;;5022155;28;20181;-89
2021/07/09 02:02:50;;;;;;;5.15;3.75;;;17.90;91.20;;;;;;5021905;28;20219;-89
2021/07/09 02:05:17;;;;;;;5.25;3.67;;;17.90;91.50;;;;;;5022061;28;20633;-89
2021/07/09 02:07:45;;;;;;;6.25;3.80;;;18.00;91.00;;;;;;5021807;28;20182;-86
2021/07/09 02:10:13;;;;;;;4.55;3.92;;;18.10;90.80;;;;;;5021244;28;20176;-87
2021/07/09 02:12:40;;;;;;;4.45;3.75;;;18.10;90.00;;;;;;5003810;28;20494;-88
2021/07/09 02:15:11;;;;;;;4.03;3.70;;;18.00;90.10;;;;;;5021377;28;20196;-87
2021/07/09 02:17:37;;;;;;;5.25;3.50;;;17.90;91.60;;;;;;5003528;28;20245;-86
2021/07/09 02:20:06;;;;;;;7.47;3.85;;;17.80;91.30;;;;;;5021555;28;20211;-86
2021/07/09 02:22:32;;;;;;;9.85;3.90;;;17.70;92.20;;;;;;5021699;28;20184;-86
2021/07/09 02:24:58;;;;;;;5.72;4.20;;;17.70;92.10;;;;;;5022939;28;20206;-89
2021/07/09 02:27:24;;;;;;;6.17;4.13;;;17.70;92.00;;;;;;4989107;28;20198;-89
2021/07/09 02:29:53;;;;;;;4.38;3.63;;;17.60;92.10;;;;;;5022920;28;20274;-89
2021/07/09 02:32:19;;;;;;;3.93;3.63;;;17.70;92.20;;;;;;5004251;28;20195;-89
2021/07/09 02:34:44;;;;;;;4.70;3.70;;;17.70;92.60;;;;;;5022275;28;20211;-90
2021/07/09 02:37:11;;;;;;;5.07;4.13;;;17.70;91.80;;;;;;5021060;28;20172;-89
2021/07/09 02:39:40;;;;;;;4.67;3.70;;;17.60;92.10;;;;;;5020724;28;20182;-89
2021/07/09 02:42:07;;;;;;;7.43;4.00;;;17.50;92.20;;;;;;5003046;28;20173;-91
2021/07/09 02:44:37;;;;;;;7.00;4.17;;;17.40;92.50;;;;;;5003634;28;20264;-89
2021/07/09 02:47:03;;;;;;;5.57;3.47;;;17.30;93.20;;;;;;5003322;28;20186;-89
2021/07/09 02:49:29;;;;;;;6.47;3.90;;;17.20;93.80;;;;;;5021275;28;20178;-89
2021/07/09 02:51:55;;;;;;;6.90;3.70;;;17.30;92.80;;;;;;5020597;28;20220;-89
2021/07/09 02:54:21;;;;;;;5.93;4.23;;;17.20;93.10;;;;;;5020981;28;20213;-89
2021/07/09 02:56:47;;;;;;;4.57;4.17;;;17.20;93.20;;;;;;5003188;28;20238;-90
2021/07/09 02:59:14;;;;;;;4.17;3.80;;;17.20;94.10;;;;;;5021117;28;20497;-89
2021/07/09 03:01:41;;;;;;;7.00;4.13;;;17.20;93.50;;;;;;5003464;28;20184;-91
2021/07/09 03:04:13;;;;;;;6.60;4.03;;;17.10;93.30;;;;;;5005648;28;20228;-89
2021/07/09 03:06:39;;;;;;;7.43;3.67;;;17.10;94.00;;;;;;5022919;28;20231;-89
2021/07/09 03:09:12;;;;;;;4.67;4.27;;;17.10;93.40;;;;;;5025080;28;20192;-90
2021/07/09 03:11:41;;;;;;;5.23;4.13;;;17.20;93.20;;;;;;4992355;28;20195;-89
2021/07/09 03:29:38;;;;;;;6.80;4.10;;;17.10;93.30;;;;;;4944493;29;20204;-93
2021/07/09 03:32:20;;;;;;;4.40;4.00;;;17.10;94.00;;;;;;4964727;29;20240;-89
2021/07/09 03:35:40;;;;;;;5.73;4.40;;;17.00;94.10;;;;;;4964618;29;20245;-89
2021/07/09 03:38:47;;;;;;;6.07;4.20;;;17.00;94.20;;;;;;4964823;29;20184;-89
2021/07/09 03:44:16;;;;;;;;;;;;;;;;;;;;;
2021/07/09 03:47:52;;;;;;;4.73;4.27;;;17.00;94.80;;;;;;4963358;29;20721;-91
2021/07/09 03:50:23;;;;;;;5.00;4.03;;;16.90;94.60;;;;;;4933714;29;20202;-89
2021/07/09 03:53:12;;;;;;;8.20;4.50;;;16.80;95.20;;;;;;4960901;29;20203;-90
2021/07/09 03:55:46;;;;;;;6.30;4.67;;;16.80;94.90;;;;;;5002857;28;20215;-89
2021/07/09 03:58:17;;;;;;;4.93;3.90;;;16.90;95.40;;;;;;5000886;28;20203;-89
2021/07/09 04:01:02;;;;;;;5.00;4.43;;;16.90;96.30;;;;;;5008938;28;20186;-90
2021/07/09 04:03:38;;;;;;;5.17;4.37;;;16.80;95.60;;;;;;4992240;28;20191;-89
2021/07/09 04:06:07;;;;;;;4.60;4.17;;;16.80;95.70;;;;;;4991969;28;20189;-88
2021/07/09 04:12:22;;;;;;;5.80;4.53;;;16.80;96.50;;;;;;4918436;29;20185;-89
2021/07/09 04:14:57;;;;;;;4.70;4.30;;;16.80;96.10;;;;;;4961112;28;20242;-89
2021/07/09 04:17:27;;;;;;;5.40;4.30;;;16.80;96.60;;;;;;4991728;28;20173;-90
2021/07/09 04:19:54;;;;;;;4.37;3.97;;;16.80;95.90;;;;;;4990909;28;20197;-93
2021/07/09 04:22:48;;;;;;;6.23;4.20;;;16.80;96.30;;;;;;4991239;28;20816;-92
2021/07/09 04:25:24;;;;;;;6.57;4.43;;;16.80;96.10;;;;;;5009160;28;20209;-89
2021/07/09 04:27:59;;;;;;;4.63;4.23;;;16.80;94.90;;;;;;5009105;28;20193;-89
2021/07/09 04:30:56;;;;;;;5.13;4.50;;;16.70;95.90;;;;;;4991694;28;20185;-91
2021/07/09 04:33:23;;;;;;;5.10;4.47;;;16.70;95.90;;;;;;4976936;28;20226;-89
2021/07/09 04:36:17;;;;;;;5.33;4.57;;;16.60;95.60;;;;;;4992311;28;20191;-90
2021/07/09 04:38:52;;;;;;;7.37;4.80;;;16.60;96.30;;;;;;4971476;28;20200;-94
2021/07/09 04:42:24;;;;;;;;;;;;;;;;;;;;;
2021/07/09 04:48:39;;;;;;;;;;;;;;;;;;;;;
2021/07/09 04:55:19;;;;;;;5.17;4.67;;;16.60;95.80;;;;;;4985672;28;20306;-90
2021/07/09 05:05:34;;;;;;;6.83;4.63;;;16.60;96.90;;;;;;5006368;28;20265;-90
2021/07/09 05:08:42;;;;;;;;;;;;;;;;;;;;;
2021/07/09 05:11:37;;;;;;;5.60;4.27;;;16.50;96.50;;;;;;5022551;28;20193;-90
2021/07/09 05:14:36;;;;;;;6.00;4.60;;;16.60;96.70;;;;;;5010154;28;20404;-89
2021/07/09 05:17:10;;;;;;;8.60;4.80;;;16.50;96.30;;;;;;4981774;28;20198;-90
2021/07/09 05:19:58;;;;;;;;;;;;;;;;;;;;;
2021/07/09 05:22:38;;;;;;;5.87;4.57;;;16.60;95.90;;;;;;5007298;28;20225;-92
2021/07/09 05:25:06;;;;;;;6.10;4.70;;;16.60;95.70;;;;;;4990092;28;20216;-90
2021/07/09 05:27:34;;;;;;;5.23;4.60;;;16.60;96.10;;;;;;4983161;28;20190;-88
2021/07/09 05:30:16;;;;;;;5.53;5.03;;;16.50;97.10;;;;;;5001493;28;20331;-89
2021/07/09 05:32:43;;;;;;;5.03;4.60;;;16.50;97.20;;;;;;4966693;28;20196;-90
2021/07/09 05:35:17;;;;;;;6.67;4.30;;;16.60;97.30;;;;;;5007656;28;20719;-90
2021/07/09 05:37:52;;;;;;;5.03;4.53;;;16.70;96.70;;;;;;5025594;28;20185;-89
2021/07/09 05:40:31;;;;;;;5.27;4.77;;;16.60;97.10;;;;;;5028168;28;20183;-90
2021/07/09 05:43:25;;;;;;;5.93;4.20;;;16.50;97.50;;;;;;5003083;28;20196;-90
2021/07/09 05:46:03;;;;;;;4.23;3.83;;;16.70;96.30;;;;;;4988250;28;20175;-91
2021/07/09 05:48:49;;;;;;;4.67;4.27;;;16.70;96.80;;;;;;5016975;28;20193;-90
2021/07/09 05:51:18;;;;;;;4.63;4.23;;;16.70;95.90;;;;;;5011017;28;20192;-90
2021/07/09 05:53:45;;;;;;;5.03;4.53;;;16.70;95.70;;;;;;4996872;28;20230;-93
2021/07/09 05:56:16;;;;;;;4.90;4.37;;;16.80;95.60;;;;;;5007783;28;20205;-89
2021/07/09 05:58:45;;;;;;;4.90;4.47;;;16.80;95.00;;;;;;5003802;28;20184;-89
2021/07/09 06:01:20;;;;;;;7.67;4.43;;;16.80;95.90;;;;;;5026205;28;20249;-91
2021/07/09 06:03:46;;;;;;;6.57;4.37;;;16.90;95.20;;;;;;5002281;28;20218;-88
2021/07/09 06:06:12;;;;;;;5.87;4.23;;;16.90;95.30;;;;;;5003289;28;20280;-88
2021/07/09 06:08:41;;;;;;;4.93;4.53;;;16.80;95.30;;;;;;5015409;28;20202;-90
2021/07/09 06:11:35;;;;;;;4.83;3.93;;;16.80;95.70;;;;;;5018252;28;20195;-89
2021/07/09 06:14:02;;;;;;;5.13;4.37;;;16.70;96.30;;;;;;5011037;28;20276;-91
2021/07/09 06:16:28;;;;;;;5.47;4.57;;;16.80;95.50;;;;;;5013315;28;20202;-91
2021/07/09 06:18:57;;;;;;;5.03;4.50;;;16.80;95.20;;;;;;5015823;28;20249;-89
2021/07/09 06:21:24;;;;;;;4.57;4.17;;;16.80;95.80;;;;;;5003666;28;20188;-90
2021/07/09 06:23:51;;;;;;;5.27;4.40;;;16.80;95.40;;;;;;4988561;28;20216;-90
2021/07/09 06:26:17;;;;;;;5.67;4.57;;;16.90;94.90;;;;;;5010028;28;20286;-89
2021/07/09 06:28:43;;;;;;;6.07;4.23;;;16.90;95.50;;;;;;5005888;28;20189;-89
2021/07/09 06:31:12;;;;;;;4.97;4.47;;;16.90;95.30;;;;;;5006682;28;20707;-88
2021/07/09 06:33:41;;;;;;;7.00;4.57;;;17.00;95.80;;;;;;5012523;28;20210;-86
2021/07/09 06:36:07;;;;;;;5.97;4.33;;;17.00;94.30;;;;;;5014077;28;20202;-88
2021/07/09 06:38:34;;;;;;;6.47;4.07;;;17.00;95.70;;;;;;5019073;28;20190;-91
2021/07/09 06:41:03;;;;;;;6.57;4.33;;;17.00;95.00;;;;;;5001025;28;20247;-91
2021/07/09 06:43:29;;;;;;;4.90;4.43;;;17.00;94.50;;;;;;5011649;28;20184;-91
2021/07/09 06:45:55;;;;;;;6.10;4.20;;;17.00;94.30;;;;;;5007613;28;20261;-92
2021/07/09 06:48:24;;;;;;;5.63;4.53;;;17.10;94.00;;;;;;4977764;28;20214;-89
2021/07/09 06:50:50;;;;;;;4.30;3.90;;;17.10;94.40;;;;;;5002678;28;20261;-92
2021/07/09 06:53:19;;;;;;;6.10;4.13;;;17.30;93.30;;;;;;5026469;28;20204;-90
2021/07/09 06:56:10;;;;;;;6.17;4.67;;;17.20;94.30;;;;;;5006728;28;20182;-91
2021/07/09 06:59:17;;;;;;;6.37;4.47;;;17.30;92.10;;;;;;4982224;28;20193;-90
2021/07/09 07:02:13;;;;;;;5.07;4.57;;;17.30;92.50;;;;;;5015810;28;20577;-92
2021/07/09 07:04:55;;;;;;;5.57;4.50;;;17.40;91.70;;;;;;4974197;28;20222;-88
2021/07/09 07:11:17;;;;;;;5.07;4.50;;;17.40;91.90;;;;;;4984821;28;20630;-90
2021/07/09 07:13:44;;;;;;;6.90;5.20;;;17.60;91.50;;;;;;5008729;28;20235;-90
2021/07/09 07:16:49;;;;;;;6.40;5.10;;;17.70;91.20;;;;;;5024685;28;20641;-91
2021/07/09 07:19:22;;;;;;;6.23;4.33;;;17.90;92.80;;;;;;4987669;28;20201;-87
2021/07/09 07:22:01;;;;;;;5.20;4.70;;;18.00;91.40;;;;;;5011021;28;20272;-89
2021/07/09 07:24:38;;;;;;;6.50;4.83;;;18.10;90.20;;;;;;5025752;28;20270;-90
2021/07/09 07:27:29;;;;;;;4.70;4.30;;;18.10;89.70;;;;;;5001401;28;20196;-89
2021/07/09 07:29:55;;;;;;;6.37;5.00;;;18.00;90.00;;;;;;5013850;28;20185;-90
2021/07/09 07:32:24;;;;;;;6.70;5.13;;;18.00;91.90;;;;;;5023188;28;20263;-89
2021/07/09 07:34:53;;;;;;;5.87;5.17;;;18.00;90.70;;;;;;5015305;28;20295;-89
2021/07/09 07:37:28;;;;;;;6.23;4.97;;;18.00;91.30;;;;;;5016685;28;20208;-91
2021/07/09 07:39:57;;;;;;;5.73;5.23;;;18.30;89.70;;;;;;5016245;28;20323;-89
2021/07/09 07:42:33;;;;;;;7.00;5.03;;;18.20;90.60;;;;;;5016851;28;20272;-89
2021/07/09 07:45:03;;;;;;;5.97;5.17;;;18.50;89.20;;;;;;5019065;28;20209;-90
2021/07/09 07:47:30;;;;;;;5.32;4.82;;;18.80;87.90;;;;;;5015839;28;20199;-90
2021/07/09 07:49:56;;;;;;;5.37;4.83;;;18.90;85.50;;;;;;5000239;28;20683;-86
2021/07/09 07:52:38;;;;;;;5.10;4.60;;;18.80;85.90;;;;;;5018550;28;20223;-87
2021/07/09 07:55:26;;;;;;;;;;;;;;;;;;;;;
2021/07/09 07:58:05;;;;;;;7.37;5.30;;;18.70;88.00;;;;;;5025372;28;20254;-86
2021/07/09 08:00:42;;;;;;;6.70;5.17;;;18.70;87.90;;;;;;4999472;28;20763;-87
2021/07/09 08:03:22;;;;;;;5.27;4.80;;;18.80;86.30;;;;;;5013091;28;20201;-86
2021/07/09 08:05:51;;;;;;;6.05;5.00;;;19.00;87.00;;;;;;5006059;28;20631;-91
2021/07/09 08:08:43;;;;;;;7.43;5.23;;;18.90;84.90;;;;;;5014971;28;20222;-89
2021/07/09 08:11:52;;;;;;;5.57;5.00;;;18.90;86.60;;;;;;5010772;28;20223;-89
2021/07/09 08:14:36;;;;;;;7.72;5.35;;;19.30;85.50;;;;;;5014440;28;20250;-89
2021/07/09 08:17:37;;;;;;;5.47;4.95;;;19.50;84.30;;;;;;5022624;28;20175;-89
2021/07/09 08:20:53;;;;;;;6.20;4.90;;;19.20;84.50;;;;;;4983224;28;20197;-89
2021/07/09 08:26:01;;;;;;;7.47;5.20;;;19.00;85.50;;;;;;5035234;23;20239;-89
2021/07/09 08:28:28;;;;;;;7.88;5.55;;;19.10;85.40;;;;;;5016040;28;20215;-89
2021/07/09 08:34:57;;;;;;;7.40;5.50;;;19.40;83.50;;;;;;4958689;28;20238;-88
2021/07/09 08:38:35;;;;;;;6.05;5.30;;;19.70;82.90;;;;;;4912730;29;20211;-90
2021/07/09 08:42:08;;;;;;;6.75;4.82;;;19.70;81.40;;;;;;4989055;28;20191;-89
2021/07/09 08:48:40;;;;;;;5.38;4.88;;;19.90;82.30;;;;;;4960165;28;20200;-91
2021/07/09 08:51:52;;;;;;;9.63;5.75;;;19.80;83.00;;;;;;4992471;28;20201;-89
2021/07/09 08:55:31;;;;;;;;;;;;;;;;;;;;;
2021/07/09 08:57:45;;;;;;;7.35;5.60;;;20.30;83.20;;;;;;5020149;23;21213;-90
2021/07/09 09:00:26;;;;;;;7.35;5.50;;;20.50;81.20;;;;;;5032199;28;20185;-89
2021/07/09 09:02:53;;;;;;;8.52;7.72;;;20.70;80.30;;;;;;5025824;28;20245;-89
2021/07/09 09:05:24;;;;;;;7.57;6.82;;;20.50;80.50;;;;;;5030032;28;20208;-88
2021/07/09 09:08:00;;;;;;;6.55;5.78;;;20.80;80.60;;;;;;5017106;28;20737;-89
2021/07/09 09:10:35;;;;;;;8.25;6.10;;;20.80;80.40;;;;;;5029170;28;20189;-89
2021/07/09 09:13:23;;;;;;;9.63;6.43;;;20.60;80.90;;;;;;5035054;28;20188;-89
2021/07/09 09:16:10;;;;;;;7.40;6.15;;;20.80;80.60;;;;;;4990260;28;20197;-88
2021/07/09 09:18:43;;;;;;;6.43;5.93;;;21.00;80.90;;;;;;5032030;28;20200;-88
2021/07/09 09:21:14;;;;;;;6.40;5.90;;;21.30;77.70;;;;;;5008017;28;20186;-88
2021/07/09 09:23:52;;;;;;;7.20;6.65;;;21.40;78.80;;;;;;5033076;28;20561;-89
2021/07/09 09:26:50;;;;;;;9.00;7.40;;;21.60;75.20;;;;;;5028955;28;20616;-90
2021/07/09 09:29:36;;;;;;;7.78;7.07;;;21.40;77.00;;;;;;5031289;28;20595;-89
2021/07/09 09:32:06;;;;;;;7.55;6.95;;;21.50;77.80;;;;;;4996299;28;20192;-88
2021/07/09 09:34:36;;;;;;;7.97;7.28;;;21.50;75.40;;;;;;5023691;28;20210;-90
2021/07/09 09:37:02;;;;;;;8.48;6.95;;;21.50;74.60;;;;;;5031724;28;20244;-90
2021/07/09 09:39:28;;;;;;;7.43;6.70;;;21.50;75.00;;;;;;5037750;28;20258;-89
2021/07/09 09:42:17;;;;;;;8.05;6.40;;;21.40;76.00;;;;;;5009230;28;20367;-88
2021/07/09 09:44:50;;;;;;;9.05;7.22;;;21.70;74.40;;;;;;5005495;28;20209;-89
2021/07/09 09:47:21;;;;;;;9.32;7.80;;;21.90;75.60;;;;;;5032798;28;20214;-88
2021/07/09 09:49:58;;;;;;;9.52;8.30;;;21.80;72.60;;;;;;5038281;28;20192;-88
2021/07/09 09:52:34;;;;;;;8.75;7.70;;;21.70;72.70;;;;;;5002804;28;20269;-89
2021/07/09 09:55:20;;;;;;;10.30;7.18;;;21.40;73.40;;;;;;5013061;28;20199;-89
2021/07/09 09:57:47;;;;;;;8.60;7.70;;;21.50;74.60;;;;;;5016993;28;20229;-89
2021/07/09 10:00:21;;;;;;;7.95;7.25;;;21.30;76.10;;;;;;5022112;28;20367;-88
2021/07/09 10:02:48;;;;;;;8.65;7.95;;;21.10;77.70;;;;;;5019239;28;20199;-90
2021/07/09 10:05:14;;;;;;;9.13;7.20;;;21.10;77.00;;;;;;5019791;28;20555;-90
2021/07/09 10:07:41;;;;;;;6.70;6.20;;;21.30;78.50;;;;;;5019656;28;20212;-89
2021/07/09 10:10:09;;;;;;;8.27;6.07;;;21.30;77.70;;;;;;5016694;28;20235;-89
2021/07/09 10:12:35;;;;;;;7.38;6.65;;;21.30;79.20;;;;;;5013889;28;20205;-89
2021/07/09 10:15:03;;;;;;;8.05;6.47;;;21.40;77.60;;;;;;5007935;28;20207;-90
2021/07/09 10:17:29;;;;;;;6.40;5.88;;;21.30;78.10;;;;;;5024498;28;20678;-89
2021/07/09 10:19:58;;;;;;;6.82;6.22;;;21.20;78.00;;;;;;5027112;28;20186;-91
2021/07/09 10:22:24;;;;;;;7.32;6.50;;;21.60;78.10;;;;;;5022551;28;20188;-90
2021/07/09 10:24:53;;;;;;;6.53;5.90;;;22.20;76.90;;;;;;5030923;28;20199;-90
2021/07/09 10:27:21;;;;;;;7.00;5.45;;;22.70;73.50;;;;;;5005227;28;20182;-89
2021/07/09 10:29:48;;;;;;;7.35;6.75;;;22.50;71.30;;;;;;5018130;28;20199;-89
2021/07/09 10:32:35;;;;;;;8.07;7.28;;;22.20;78.10;;;;;;5016981;28;20212;-90
2021/07/09 10:35:02;;;;;;;7.10;6.47;;;21.90;77.20;;;;;;5017714;28;20212;-89
2021/07/09 10:37:31;;;;;;;9.43;7.15;;;21.70;80.20;;;;;;5006530;28;20217;-88
2021/07/09 10:40:05;;;;;;;7.55;6.82;;;21.70;81.40;;;;;;5006774;28;20189;-89
2021/07/09 10:42:42;;;;;;;7.13;6.45;;;21.70;82.40;;;;;;5014960;28;20185;-89
2021/07/09 10:45:22;;;;;;;9.55;7.03;;;21.70;82.40;;;;;;5027921;28;20208;-89
2021/07/09 10:47:52;;;;;;;7.97;6.60;;;21.90;83.60;;;;;;5028109;28;20356;-89
2021/07/09 10:50:24;;;;;;;6.85;6.03;;;22.00;75.10;;;;;;5006784;28;20177;-90
2021/07/09 10:52:57;;;;;;;8.07;7.28;;;22.20;77.50;;;;;;5016662;28;20184;-88
2021/07/09 10:55:29;;;;;;;7.78;6.70;;;22.30;77.90;;;;;;5005397;28;20189;-88
2021/07/09 10:58:07;;;;;;;8.45;6.97;;;22.40;73.80;;;;;;5017474;28;20686;-88
2021/07/09 11:00:48;;;;;;;7.68;6.97;;;22.40;78.50;;;;;;5022224;28;20189;-88
2021/07/09 11:03:38;;;;;;;8.15;6.43;;;22.60;74.30;;;;;;5028014;28;20208;-89
2021/07/09 11:06:07;;;;;;;6.88;6.28;;;22.70;71.50;;;;;;5022729;28;20211;-88
2021/07/09 11:08:32;;;;;;;7.35;6.50;;;23.20;74.20;;;;;;5003757;28;20273;-90
2021/07/09 11:11:17;;;;;;;8.07;6.60;;;23.90;73.20;;;;;;5023815;28;20209;-88
2021/07/09 11:13:51;;;;;;;7.10;6.55;;;24.20;67.80;;;;;;5024307;28;20219;-88
2021/07/09 11:16:35;;;;;;;6.80;6.30;;;24.30;66.50;;;;;;5025197;28;20196;-89
2021/07/09 11:19:03;;;;;;;7.07;6.47;;;24.40;69.80;;;;;;5023829;28;20202;-89
2021/07/09 11:21:32;;;;;;;7.05;6.38;;;24.00;69.30;;;;;;5024332;28;20185;-89
2021/07/09 11:24:08;;;;;;;6.60;5.80;;;24.10;68.60;;;;;;5024023;28;20186;-88
2021/07/09 11:26:48;;;;;;;7.47;6.60;;;24.30;64.10;;;;;;5017227;28;20189;-89
2021/07/09 11:29:36;;;;;;;7.05;6.45;;;24.10;67.70;;;;;;5013312;28;20643;-88
2021/07/09 11:32:16;;;;;;;6.60;6.10;;;24.00;68.70;;;;;;5022834;28;20181;-88
2021/07/09 11:34:47;;;;;;;7.38;6.32;;;23.80;66.40;;;;;;5023155;28;20209;-88
2021/07/09 11:37:12;;;;;;;6.65;6.05;;;23.60;70.40;;;;;;5011950;28;20188;-88
2021/07/09 11:39:40;;;;;;;8.32;7.60;;;23.60;72.50;;;;;;5017113;28;20186;-89
2021/07/09 11:42:15;;;;;;;8.07;7.45;;;23.30;74.40;;;;;;5022592;28;20193;-89
2021/07/09 11:44:48;;;;;;;9.13;8.27;;;22.70;77.50;;;;;;5024709;28;20240;-88
2021/07/09 11:47:17;;;;;;;7.60;7.00;;;22.20;78.70;;;;;;5036976;28;20226;-88
2021/07/09 11:49:48;;;;;;;9.13;8.23;;;22.10;79.30;;;;;;5021387;28;20190;-88
2021/07/09 11:52:29;;;;;;;9.63;8.82;;;21.90;79.30;;;;;;5022849;28;20289;-88
2021/07/09 11:54:57;;;;;;;9.23;8.43;;;21.90;81.30;;;;;;5011671;28;20231;-88
2021/07/09 11:57:26;;;;;;;9.80;8.80;;;21.60;84.20;;;;;;5020796;28;20835;-88
2021/07/09 11:59:55;;;;;;;9.95;9.02;;;21.50;84.40;;;;;;5021919;28;20208;-88
2021/07/09 12:02:23;;;;;;;10.90;8.65;;;21.30;83.10;;;;;;5019567;28;20194;-88
2021/07/09 12:04:51;;;;;;;8.02;7.43;;;21.50;81.70;;;;;;5023439;28;20725;-87
2021/07/09 12:07:26;;;;;;;8.75;7.95;;;21.80;80.20;;;;;;5020245;28;20232;-88
2021/07/09 12:10:03;;;;;;;9.20;8.40;;;22.10;81.10;;;;;;5030977;28;20208;-88
2021/07/09 12:12:33;;;;;;;8.35;7.65;;;22.40;81.20;;;;;;5031885;28;20310;-89
2021/07/09 12:15:01;;;;;;;9.30;8.60;;;22.80;79.70;;;;;;5030439;28;20210;-88
2021/07/09 12:17:29;;;;;;;8.07;7.57;;;22.90;78.60;;;;;;5022298;28;20190;-87
2021/07/09 12:20:05;;;;;;;9.20;8.50;;;22.90;73.80;;;;;;5027249;28;20181;-88
2021/07/09 12:22:38;;;;;;;8.63;7.82;;;23.00;77.10;;;;;;5029450;28;20266;-88
2021/07/09 12:25:07;;;;;;;8.43;7.82;;;23.10;77.80;;;;;;5032304;28;20185;-87
2021/07/09 12:27:36;;;;;;;8.00;7.47;;;23.40;79.20;;;;;;5022077;28;20210;-87
2021/07/09 12:30:11;;;;;;;8.55;7.95;;;23.70;76.90;;;;;;5008895;28;20190;-87
2021/07/09 12:32:52;;;;;;;7.25;6.65;;;24.00;72.60;;;;;;5028358;28;20208;-90
2021/07/09 12:35:19;;;;;;;8.70;8.10;;;23.70;73.50;;;;;;5038142;28;20671;-92
2021/07/09 12:37:59;;;;;;;8.77;8.18;;;23.60;77.90;;;;;;5056031;28;20252;-90
2021/07/09 12:40:37;;;;;;;9.30;8.50;;;23.40;76.30;;;;;;5039480;28;20169;-91
2021/07/09 12:43:15;;;;;;;9.23;8.48;;;23.10;76.40;;;;;;5021458;28;20181;-90
2021/07/09 12:45:42;;;;;;;8.60;8.00;;;22.80;80.30;;;;;;5040482;28;20173;-91
2021/07/09 12:48:07;;;;;;;9.02;8.25;;;22.70;78.40;;;;;;5004989;28;20251;-90
2021/07/09 12:50:38;;;;;;;9.07;8.45;;;22.70;78.20;;;;;;5022589;28;20185;-91
2021/07/09 12:53:26;;;;;;;9.38;8.57;;;22.60;79.50;;;;;;5021763;28;20185;-90
2021/07/09 12:55:52;;;;;;;8.27;7.68;;;22.20;80.10;;;;;;5017155;28;20293;-91
2021/07/09 12:58:26;;;;;;;7.45;6.75;;;21.80;78.40;;;;;;5021523;28;20216;-91
2021/07/09 13:01:05;;;;;;;8.10;7.35;;;21.40;78.40;;;;;;5021486;28;20217;-91
2021/07/09 13:03:33;;;;;;;8.63;7.93;;;21.10;80.30;;;;;;5022153;28;20181;-90
2021/07/09 13:06:25;;;;;;;8.18;7.68;;;21.00;81.50;;;;;;5004888;28;20250;-91
2021/07/09 13:09:27;;;;;;;8.82;8.13;;;21.00;82.00;;;;;;5019470;28;20201;-91
2021/07/09 13:11:53;;;;;;;8.48;7.75;;;20.90;82.00;;;;;;5036289;28;20265;-90
2021/07/09 13:14:21;;;;;;;8.60;7.90;;;21.20;81.70;;;;;;5002504;28;20287;-90
2021/07/09 13:16:56;;;;;;;8.07;7.35;;;21.50;80.50;;;;;;5021855;28;20268;-91
2021/07/09 13:20:05;;;;;;;6.97;6.38;;;21.70;82.10;;;;;;5036844;28;20224;-91
2021/07/09 13:22:37;;;;;;;7.68;6.88;;;22.30;74.80;;;;;;5021961;28;20212;-91
2021/07/09 13:25:11;;;;;;;6.10;5.70;;;22.80;77.10;;;;;;5020919;28;20193;-90
2021/07/09 13:27:37;;;;;;;6.55;5.50;;;23.10;73.10;;;;;;5003177;28;20292;-91
2021/07/09 13:30:05;;;;;;;5.15;4.72;;;23.00;70.10;;;;;;5021284;28;20640;-92
2021/07/09 13:32:37;;;;;;;5.07;4.68;;;23.10;68.10;;;;;;5019792;28;20687;-91
2021/07/09 13:35:04;;;;;;;5.88;5.20;;;23.10;67.30;;;;;;5023563;28;20248;-92
2021/07/09 13:37:31;;;;;;;5.70;5.20;;;23.10;69.80;;;;;;5023173;28;20210;-89
2021/07/09 13:39:56;;;;;;;5.72;5.20;;;23.20;65.10;;;;;;4986340;28;20229;-91
2021/07/09 13:42:22;;;;;;;5.53;5.13;;;23.30;67.60;;;;;;5002536;28;20177;-90
2021/07/09 13:44:48;;;;;;;5.93;5.45;;;23.60;64.90;;;;;;5018863;28;20590;-91
2021/07/09 13:47:13;;;;;;;5.40;4.90;;;23.70;66.20;;;;;;4985005;28;20197;-91
2021/07/09 13:49:39;;;;;;;5.20;4.75;;;24.20;64.00;;;;;;5000056;28;20185;-90
2021/07/09 13:52:05;;;;;;;4.88;4.57;;;24.80;62.80;;;;;;4982780;28;20192;-91
2021/07/09 13:54:31;;;;;;;4.80;4.40;;;25.20;62.10;;;;;;4997611;28;20213;-90
2021/07/09 13:56:56;;;;;;;5.50;4.80;;;25.10;56.20;;;;;;4999531;28;20180;-90
2021/07/09 13:59:23;;;;;;;5.13;4.72;;;24.60;60.40;;;;;;4997753;28;20747;-90
2021/07/09 14:01:50;;;;;;;5.68;5.18;;;24.30;62.00;;;;;;5015633;28;20252;-90
2021/07/09 14:04:16;;;;;;;5.25;4.85;;;24.10;61.90;;;;;;4998024;28;20182;-90
2021/07/09 14:06:42;;;;;;;5.72;5.32;;;24.00;63.10;;;;;;5024385;28;20192;-90
2021/07/09 14:09:07;;;;;;;5.60;5.10;;;23.80;66.10;;;;;;5004318;28;20288;-91
2021/07/09 14:11:33;;;;;;;6.25;5.45;;;23.60;71.30;;;;;;4998078;28;20327;-91
2021/07/09 14:13:59;;;;;;;6.07;5.47;;;23.30;74.30;;;;;;4999927;28;20204;-90
2021/07/09 14:16:24;;;;;;;6.95;5.75;;;22.70;76.80;;;;;;4985737;28;20188;-90
2021/07/09 14:18:50;;;;;;;6.10;5.50;;;22.10;78.40;;;;;;4992994;28;20548;-90
2021/07/09 14:21:16;;;;;;;5.72;5.07;;;21.50;77.00;;;;;;5007717;28;20309;-89
2021/07/09 14:23:42;;;;;;;4.57;4.18;;;21.10;80.30;;;;;;5016274;28;20199;-91
2021/07/09 14:26:07;;;;;;;5.13;4.63;;;21.10;74.20;;;;;;5014613;28;20207;-90
2021/07/09 14:28:33;;;;;;;4.50;4.20;;;21.20;78.10;;;;;;5002832;28;20596;-90
2021/07/09 14:30:59;;;;;;;5.90;5.47;;;21.20;72.90;;;;;;4996825;28;20209;-90
2021/07/09 14:33:24;;;;;;;4.88;4.38;;;21.30;78.30;;;;;;5034602;28;20278;-90